Terminal Aerodrome Forecast
Issued by NWS

Home | Current Version | Previous Version | Text Only | Print | Product List | Glossary On
Versions: 1 2 3 4 5 6 7 8 9 10 11 12 13 14 15 16 17 18 19 20 21 22 23 24 25 26 27 28 29 30 31 32 33 34 35 36 37 38 39 40 41 42 43 44 45 46 47 48 49 50
000
FTUS44 KHGX 011802 AAA
TAFIAH
TAF AMD
KIAH 011802Z 0118/0224 VRB05KT P6SM VCTS SCT030CB SCT250
      TEMPO 0118/0119 VRB20KT 2SM TSRA OVC025CB
     FM012300 15010KT P6SM SCT040 BKN060
     FM020300 VRB03KT P6SM SCT250
     FM021000 16004KT P6SM SCT020 SCT250
     FM021500 14009KT P6SM VCSH SCT035 SCT250 PROB30 0217/0221 TS
      OVC030CB=

USA.gov is the U.S. government's official web portal to all federal, state and local government web resources and services.